Time;durP1;ratioP1;P1;durP2;ratioP2;P2;SDS_P1;SDS_P2;PMS_P1;PMS_P2;Temp;Humidity;BMP_temperature;BMP_pressure;BME280_temperature;BME280_humidity;BME280_pressure;Samples;Min_cycle;Max_cycle;Signal;HPM_P1;HPM_P2
2021/04/20 00:01:14;;;;;;;13.70;9.20;;;5.20;72.60;;;;;;5059779;28;20056;-63
2021/04/20 00:03:39;;;;;;;13.18;9.75;;;5.20;72.80;;;;;;5059073;28;20036;-63
2021/04/20 00:06:11;;;;;;;13.77;8.75;;;5.10;72.90;;;;;;5060149;28;20057;-63
2021/04/20 00:08:37;;;;;;;14.35;9.48;;;5.10;73.20;;;;;;5061629;28;20036;-62
2021/04/20 00:11:06;;;;;;;15.48;9.93;;;5.00;73.10;;;;;;5055126;28;20091;-62
2021/04/20 00:13:34;;;;;;;15.30;9.23;;;5.00;73.40;;;;;;5060278;28;20383;-62
2021/04/20 00:16:02;;;;;;;13.45;8.98;;;4.90;73.60;;;;;;5060205;28;20113;-63
2021/04/20 00:18:28;;;;;;;13.23;9.02;;;4.90;73.60;;;;;;5060608;28;20405;-62
2021/04/20 00:20:53;;;;;;;13.35;9.25;;;4.90;73.70;;;;;;5061818;28;20035;-62
2021/04/20 00:23:21;;;;;;;12.68;8.82;;;4.80;74.60;;;;;;5056998;28;20071;-62
2021/04/20 00:25:47;;;;;;;13.07;8.82;;;4.70;73.90;;;;;;5059584;28;20036;-62
2021/04/20 00:28:21;;;;;;;11.95;8.10;;;4.60;73.90;;;;;;5061643;28;20119;-62
2021/04/20 00:30:52;;;;;;;12.23;8.75;;;4.70;74.50;;;;;;5052525;28;20041;-62
2021/04/20 00:33:20;;;;;;;14.65;8.57;;;4.60;74.50;;;;;;5060478;28;20064;-63
2021/04/20 00:35:47;;;;;;;12.70;8.40;;;4.60;74.50;;;;;;5060078;28;20210;-64
2021/04/20 00:38:15;;;;;;;12.27;8.52;;;4.60;74.50;;;;;;5053101;28;20135;-62
2021/04/20 00:40:43;;;;;;;15.43;9.00;;;4.50;74.40;;;;;;5055873;28;20044;-63
2021/04/20 00:43:09;;;;;;;14.82;9.43;;;4.50;74.50;;;;;;5062862;28;20154;-63
2021/04/20 00:45:39;;;;;;;13.55;8.98;;;4.50;74.60;;;;;;5066124;28;20123;-63
2021/04/20 00:48:09;;;;;;;13.43;8.52;;;4.60;74.60;;;;;;5077366;28;20059;-62
2021/04/20 00:50:38;;;;;;;13.10;8.73;;;4.60;74.60;;;;;;5059213;28;20107;-63
2021/04/20 00:53:08;;;;;;;15.00;8.93;;;4.60;74.50;;;;;;5064749;28;20040;-62
2021/04/20 00:55:34;;;;;;;14.65;8.48;;;4.60;74.10;;;;;;5062956;28;20037;-63
2021/04/20 00:58:03;;;;;;;13.05;8.48;;;4.60;74.00;;;;;;5061654;28;20032;-63
2021/04/20 01:00:30;;;;;;;12.70;8.48;;;4.70;73.80;;;;;;5056240;28;20166;-61
2021/04/20 01:03:00;;;;;;;13.68;8.50;;;4.70;73.60;;;;;;5055780;28;20072;-62
2021/04/20 01:05:36;;;;;;;13.30;8.70;;;4.70;73.40;;;;;;5062416;28;20059;-63
2021/04/20 01:08:12;;;;;;;13.10;8.45;;;4.70;73.30;;;;;;5059656;28;20032;-63
2021/04/20 01:10:43;;;;;;;13.50;8.75;;;4.70;73.20;;;;;;5059859;28;20036;-62
2021/04/20 01:13:11;;;;;;;13.50;8.75;;;4.70;73.10;;;;;;5069061;28;20097;-63
2021/04/20 01:15:38;;;;;;;13.25;8.45;;;4.70;73.10;;;;;;5060736;28;20120;-62
2021/04/20 01:18:13;;;;;;;11.75;8.27;;;4.60;72.90;;;;;;5063248;28;20037;-63
2021/04/20 01:20:46;;;;;;;14.05;8.68;;;4.60;73.20;;;;;;5064327;28;20545;-65
2021/04/20 01:23:16;;;;;;;12.57;7.95;;;4.60;73.10;;;;;;5063143;28;20043;-62
2021/04/20 01:25:45;;;;;;;12.07;8.45;;;4.70;72.90;;;;;;5062969;28;20033;-62
2021/04/20 01:28:13;;;;;;;14.45;8.85;;;4.60;72.70;;;;;;5061201;28;20074;-63
2021/04/20 01:30:38;;;;;;;12.32;8.48;;;4.60;72.60;;;;;;5062118;28;20485;-62
2021/04/20 01:33:09;;;;;;;12.65;8.85;;;4.50;72.60;;;;;;5065133;28;20043;-63
2021/04/20 01:35:37;;;;;;;13.48;8.73;;;4.50;72.90;;;;;;5061317;28;20033;-62
2021/04/20 01:38:04;;;;;;;12.43;8.60;;;4.50;72.90;;;;;;5066751;28;20544;-63
2021/04/20 01:40:36;;;;;;;12.32;8.25;;;4.50;73.00;;;;;;5064683;28;20028;-62
2021/04/20 01:43:02;;;;;;;11.98;8.20;;;4.40;73.00;;;;;;5065228;28;20032;-62
2021/04/20 01:45:31;;;;;;;13.35;8.75;;;4.50;73.10;;;;;;5063494;28;20037;-62
2021/04/20 01:48:00;;;;;;;13.80;8.95;;;4.50;73.10;;;;;;5063876;28;20032;-63
2021/04/20 01:50:26;;;;;;;12.50;8.40;;;4.50;73.20;;;;;;5063528;28;20064;-63
2021/04/20 01:52:55;;;;;;;14.18;8.85;;;4.50;73.10;;;;;;5061226;28;20031;-62
2021/04/20 01:55:26;;;;;;;12.82;8.85;;;4.50;73.10;;;;;;5060100;28;20040;-62
2021/04/20 01:57:55;;;;;;;14.73;9.05;;;4.40;73.10;;;;;;5069498;28;20029;-63
2021/04/20 02:00:22;;;;;;;13.82;9.32;;;4.40;73.30;;;;;;5067195;28;20071;-63
2021/04/20 02:02:52;;;;;;;14.45;9.07;;;4.40;73.20;;;;;;5067697;28;20099;-62
2021/04/20 02:05:21;;;;;;;12.55;7.80;;;4.40;73.30;;;;;;5081889;28;20571;-62
2021/04/20 02:07:49;;;;;;;13.35;9.15;;;4.40;73.40;;;;;;5064963;28;20040;-62
2021/04/20 02:10:17;;;;;;;14.23;9.27;;;4.50;73.70;;;;;;5056518;28;20432;-63
2021/04/20 02:12:45;;;;;;;14.38;8.63;;;4.50;73.90;;;;;;5057950;28;20029;-63
2021/04/20 02:15:17;;;;;;;14.25;8.85;;;4.50;74.80;;;;;;5064479;28;20497;-62
2021/04/20 02:17:49;;;;;;;14.07;8.95;;;4.50;74.10;;;;;;5060891;28;20038;-63
2021/04/20 02:20:17;;;;;;;13.90;8.75;;;4.60;74.00;;;;;;5061655;28;20524;-63
2021/04/20 02:22:48;;;;;;;12.73;8.63;;;4.60;74.00;;;;;;5061953;28;20065;-63
2021/04/20 02:25:16;;;;;;;12.73;8.80;;;4.60;74.00;;;;;;5065613;28;20037;-64
2021/04/20 02:27:49;;;;;;;14.55;9.73;;;4.60;74.00;;;;;;5064451;28;20031;-62
2021/04/20 02:30:18;;;;;;;12.90;8.55;;;4.70;74.10;;;;;;5066090;28;20119;-63
2021/04/20 02:32:50;;;;;;;12.95;9.18;;;4.70;74.20;;;;;;5058335;28;20134;-63
2021/04/20 02:35:17;;;;;;;16.70;9.18;;;4.70;74.10;;;;;;5055963;28;20139;-63
2021/04/20 02:37:47;;;;;;;14.20;8.73;;;4.80;74.00;;;;;;5065555;28;20040;-63
2021/04/20 02:40:29;;;;;;;15.18;8.98;;;4.80;73.80;;;;;;5065343;28;20032;-63
2021/04/20 02:42:58;;;;;;;13.57;8.50;;;4.80;74.00;;;;;;5060699;28;20032;-63
2021/04/20 02:45:28;;;;;;;15.25;9.50;;;4.80;73.70;;;;;;5056461;28;20040;-62
2021/04/20 02:48:01;;;;;;;15.63;10.07;;;4.80;73.60;;;;;;5060381;28;20037;-63
2021/04/20 02:50:29;;;;;;;15.88;9.77;;;4.90;73.80;;;;;;5066244;28;20110;-63
2021/04/20 02:53:00;;;;;;;15.75;10.02;;;4.80;73.70;;;;;;5067135;28;20521;-62
2021/04/20 02:55:28;;;;;;;15.40;9.90;;;4.80;73.80;;;;;;5063834;28;20033;-62
2021/04/20 02:57:57;;;;;;;15.88;10.38;;;4.80;73.70;;;;;;5063467;28;20124;-62
2021/04/20 03:00:26;;;;;;;17.42;9.65;;;4.80;74.10;;;;;;5059729;28;20091;-63
2021/04/20 03:02:59;;;;;;;16.52;10.05;;;4.80;74.10;;;;;;5056544;28;20068;-62
2021/04/20 03:05:32;;;;;;;16.35;9.57;;;4.80;74.30;;;;;;5060973;28;20067;-63
2021/04/20 03:07:59;;;;;;;16.00;9.82;;;4.80;74.40;;;;;;5065223;28;20032;-64
2021/04/20 03:10:30;;;;;;;15.23;9.82;;;4.80;74.30;;;;;;5061660;28;20040;-63
2021/04/20 03:12:55;;;;;;;14.40;9.02;;;4.80;74.30;;;;;;5055725;28;20409;-63
2021/04/20 03:15:25;;;;;;;16.20;9.40;;;4.90;74.20;;;;;;5061458;28;20025;-64
2021/04/20 03:17:51;;;;;;;15.57;9.95;;;4.80;74.20;;;;;;5067744;28;20028;-63
2021/04/20 03:20:18;;;;;;;17.15;9.75;;;4.80;74.10;;;;;;5062984;28;20032;-63
2021/04/20 03:22:50;;;;;;;17.73;10.18;;;4.80;74.10;;;;;;5063964;28;20033;-62
2021/04/20 03:25:24;;;;;;;52.25;21.75;;;4.90;74.00;;;;;;5064223;28;20401;-62
2021/04/20 03:27:55;;;;;;;25.90;12.67;;;4.90;74.10;;;;;;5064127;28;20036;-63
2021/04/20 03:30:31;;;;;;;17.00;10.20;;;4.90;74.00;;;;;;5059536;28;20031;-64
2021/04/20 03:33:15;;;;;;;14.85;9.18;;;4.90;74.10;;;;;;5072291;28;20037;-64
2021/04/20 03:36:03;;;;;;;16.55;10.00;;;4.90;74.10;;;;;;5058187;28;20052;-62
2021/04/20 03:38:58;;;;;;;15.10;9.25;;;4.90;73.90;;;;;;5051602;28;20039;-64
2021/04/20 03:41:32;;;;;;;12.70;8.18;;;4.90;74.30;;;;;;5055157;28;20086;-65
2021/04/20 03:44:00;;;;;;;15.73;9.48;;;4.90;73.90;;;;;;5052872;28;20592;-62
2021/04/20 03:46:43;;;;;;;13.20;9.18;;;4.90;73.70;;;;;;5056514;28;20033;-64
2021/04/20 03:49:22;;;;;;;17.70;10.23;;;4.90;74.10;;;;;;5061932;28;20025;-62
2021/04/20 03:51:53;;;;;;;17.65;10.93;;;4.90;73.70;;;;;;5064512;28;20043;-64
2021/04/20 03:54:24;;;;;;;19.90;11.70;;;4.90;73.70;;;;;;5059643;28;20037;-62
2021/04/20 03:56:53;;;;;;;19.33;11.05;;;4.90;73.80;;;;;;5061410;28;20505;-62
2021/04/20 03:59:29;;;;;;;16.63;9.93;;;5.00;74.30;;;;;;5055216;28;20036;-64
2021/04/20 04:01:58;;;;;;;16.95;9.75;;;5.00;74.00;;;;;;5054812;28;20143;-63
2021/04/20 04:04:26;;;;;;;18.30;10.23;;;5.00;73.90;;;;;;5058467;28;20037;-62
2021/04/20 04:06:54;;;;;;;14.32;9.65;;;5.00;74.00;;;;;;5060145;28;20059;-63
2021/04/20 04:09:20;;;;;;;14.82;9.68;;;5.00;73.90;;;;;;5059745;28;20033;-64
2021/04/20 04:11:55;;;;;;;17.45;9.88;;;5.00;74.00;;;;;;5056726;28;20544;-62
2021/04/20 04:14:25;;;;;;;14.85;9.65;;;5.00;74.40;;;;;;5057854;28;20108;-63
2021/04/20 04:16:58;;;;;;;16.38;9.98;;;5.00;74.10;;;;;;5056217;28;20041;-63
2021/04/20 04:19:30;;;;;;;14.55;9.63;;;5.00;74.30;;;;;;5058313;28;20078;-64
2021/04/20 04:22:08;;;;;;;13.15;9.25;;;5.00;74.20;;;;;;5065909;28;20125;-64
2021/04/20 04:25:05;;;;;;;20.02;10.60;;;5.10;74.30;;;;;;5060098;28;20501;-64
2021/04/20 04:27:40;;;;;;;18.80;12.45;;;5.10;74.90;;;;;;5054266;28;20045;-64
2021/04/20 04:30:13;;;;;;;21.23;13.05;;;5.10;74.20;;;;;;5054817;28;20041;-64
2021/04/20 04:32:42;;;;;;;18.05;11.23;;;5.10;74.20;;;;;;5054972;28;20413;-63
2021/04/20 04:35:09;;;;;;;19.88;11.82;;;5.10;74.10;;;;;;5058727;28;20077;-64
2021/04/20 04:37:39;;;;;;;15.70;10.40;;;5.10;74.10;;;;;;5059396;28;20025;-62
2021/04/20 04:40:10;;;;;;;18.55;11.25;;;5.10;74.20;;;;;;5062422;28;20505;-64
2021/04/20 04:42:37;;;;;;;20.10;11.07;;;5.10;74.30;;;;;;5066373;28;20103;-63
2021/04/20 04:45:08;;;;;;;18.70;11.65;;;5.10;74.40;;;;;;5068586;28;20421;-64
2021/04/20 04:47:35;;;;;;;20.52;12.32;;;5.10;74.50;;;;;;5067681;28;20496;-64
2021/04/20 04:50:05;;;;;;;20.48;12.32;;;5.10;74.50;;;;;;5070156;28;20437;-63
2021/04/20 04:52:34;;;;;;;17.90;11.55;;;5.10;74.80;;;;;;5067902;28;20029;-63
2021/04/20 04:55:00;;;;;;;17.75;11.10;;;5.10;74.80;;;;;;5069560;28;20409;-64
2021/04/20 04:57:27;;;;;;;19.38;12.60;;;5.10;74.80;;;;;;5069723;28;20504;-63
2021/04/20 04:59:59;;;;;;;21.27;12.27;;;5.10;75.00;;;;;;5067933;28;20061;-63
2021/04/20 05:02:29;;;;;;;21.52;12.48;;;5.10;75.30;;;;;;5066858;28;20035;-63
2021/04/20 05:05:12;;;;;;;18.55;12.07;;;5.20;75.10;;;;;;5061592;28;20025;-63
2021/04/20 05:07:38;;;;;;;20.40;12.13;;;5.20;75.50;;;;;;5070467;28;20037;-63
2021/04/20 05:10:13;;;;;;;24.35;12.45;;;5.20;75.00;;;;;;5065055;28;20041;-60
2021/04/20 05:12:41;;;;;;;;;;;5.20;75.40;;;;;;5064211;28;20024;-62
2021/04/20 05:15:12;;;;;;;19.02;11.27;;;5.30;76.20;;;;;;5069184;28;19913;-62
2021/04/20 05:17:38;;;;;;;20.95;11.90;;;5.30;74.90;;;;;;5070238;28;20033;-65
2021/04/20 05:20:10;;;;;;;21.13;11.75;;;5.30;75.00;;;;;;5069650;28;20040;-65
2021/04/20 05:22:38;;;;;;;19.65;12.63;;;5.30;75.60;;;;;;5066000;28;20052;-65
2021/04/20 05:25:12;;;;;;;23.27;12.88;;;5.40;75.20;;;;;;5069107;28;20090;-65
2021/04/20 05:27:44;;;;;;;20.33;11.70;;;5.40;75.70;;;;;;5068560;28;20033;-65
2021/04/20 05:30:15;;;;;;;22.48;12.40;;;5.40;75.50;;;;;;5066251;28;20036;-65
2021/04/20 05:32:49;;;;;;;22.10;13.00;;;5.50;75.60;;;;;;5068887;28;20036;-63
2021/04/20 05:35:20;;;;;;;23.98;13.05;;;5.50;75.50;;;;;;5067668;28;20045;-63
2021/04/20 05:37:49;;;;;;;26.35;13.48;;;5.60;75.60;;;;;;5067717;28;20033;-63
2021/04/20 05:40:15;;;;;;;21.80;12.55;;;5.60;75.40;;;;;;5066623;28;20039;-61
2021/04/20 05:42:41;;;;;;;22.92;12.70;;;5.60;75.50;;;;;;5068400;28;20228;-62
2021/04/20 05:45:11;;;;;;;19.50;12.30;;;5.70;75.70;;;;;;5066113;28;20046;-61
2021/04/20 05:47:44;;;;;;;23.13;13.10;;;5.70;75.70;;;;;;5083654;28;20040;-62
2021/04/20 05:50:16;;;;;;;20.17;12.63;;;5.80;76.00;;;;;;5083739;28;20067;-62
2021/04/20 05:52:42;;;;;;;21.02;12.68;;;5.80;76.00;;;;;;5084679;28;20029;-63
2021/04/20 05:55:08;;;;;;;23.55;13.80;;;5.90;75.90;;;;;;5069205;28;20074;-63
2021/04/20 05:57:35;;;;;;;26.40;13.65;;;5.90;75.70;;;;;;5069273;28;20056;-63
2021/04/20 06:00:06;;;;;;;27.73;13.70;;;6.00;75.90;;;;;;5068614;28;20028;-63
2021/04/20 06:02:33;;;;;;;32.17;13.80;;;6.00;76.00;;;;;;5066896;28;20055;-63
2021/04/20 06:05:13;;;;;;;26.83;14.18;;;6.10;75.70;;;;;;5068083;28;20458;-63
2021/04/20 06:08:00;;;;;;;27.13;15.60;;;6.20;75.90;;;;;;5052604;28;20502;-63
2021/04/20 06:10:31;;;;;;;30.98;15.48;;;6.20;75.90;;;;;;5062905;28;20025;-63
2021/04/20 06:13:00;;;;;;;26.08;13.50;;;6.20;75.20;;;;;;5068191;28;20025;-63
2021/04/20 06:15:31;;;;;;;25.65;13.65;;;6.30;75.20;;;;;;5067482;28;20033;-62
2021/04/20 06:17:57;;;;;;;24.90;13.73;;;6.30;75.30;;;;;;5066215;28;20443;-63
2021/04/20 06:20:27;;;;;;;23.95;12.95;;;6.30;75.30;;;;;;5068171;28;20032;-63
2021/04/20 06:22:55;;;;;;;25.30;14.60;;;6.30;75.50;;;;;;5068167;28;20040;-63
2021/04/20 06:25:24;;;;;;;25.63;14.20;;;6.30;75.50;;;;;;5068866;28;20562;-63
2021/04/20 06:27:52;;;;;;;28.83;14.65;;;6.40;75.80;;;;;;5067188;28;20485;-63
2021/04/20 06:30:26;;;;;;;25.00;14.65;;;6.40;75.70;;;;;;5064567;28;20091;-63
2021/04/20 06:32:52;;;;;;;29.80;14.73;;;6.50;75.90;;;;;;5066926;28;20123;-62
2021/04/20 06:35:23;;;;;;;26.63;15.15;;;6.50;75.70;;;;;;5067468;28;20029;-63
2021/04/20 06:37:54;;;;;;;23.92;15.20;;;6.60;75.90;;;;;;5067846;28;20054;-63
2021/04/20 06:40:29;;;;;;;27.17;15.80;;;6.60;75.90;;;;;;5068136;28;20033;-63
2021/04/20 06:43:01;;;;;;;28.27;15.50;;;6.70;76.00;;;;;;5059162;28;20037;-63
2021/04/20 06:45:42;;;;;;;26.67;15.02;;;6.70;75.80;;;;;;5068428;28;20505;-63
2021/04/20 06:48:22;;;;;;;30.48;15.18;;;6.80;75.90;;;;;;5065750;28;20030;-63
2021/04/20 06:50:56;;;;;;;29.75;16.25;;;6.80;75.90;;;;;;5067739;28;20043;-63
2021/04/20 06:53:42;;;;;;;26.90;16.37;;;6.80;75.80;;;;;;5066514;28;20477;-63
2021/04/20 06:56:26;;;;;;;30.08;16.20;;;6.90;76.30;;;;;;5066826;28;20039;-63
2021/04/20 06:59:08;;;;;;;26.02;15.18;;;6.90;75.80;;;;;;5066492;28;20040;-63
2021/04/20 07:02:17;;;;;;;25.15;15.07;;;7.00;77.20;;;;;;5060127;28;20072;-62
2021/04/20 07:04:50;;;;;;;25.67;14.43;;;7.10;76.70;;;;;;5017871;28;20131;-63
2021/04/20 07:07:40;;;;;;;28.67;17.05;;;7.10;76.10;;;;;;5065953;28;20032;-63
2021/04/20 07:10:31;;;;;;;30.30;16.77;;;7.20;77.00;;;;;;5065397;28;20036;-63
2021/04/20 07:13:02;;;;;;;25.30;16.30;;;7.20;76.40;;;;;;5081405;28;20036;-63
2021/04/20 07:15:33;;;;;;;23.58;15.35;;;7.30;76.30;;;;;;5064587;28;20516;-63
2021/04/20 07:18:44;;;;;;;26.00;15.20;;;7.30;76.20;;;;;;5064662;28;20033;-62
2021/04/20 07:21:22;;;;;;;27.42;15.43;;;7.50;76.90;;;;;;5065140;28;20025;-63
2021/04/20 07:23:53;;;;;;;24.42;15.32;;;7.50;76.50;;;;;;5065999;28;20032;-62
2021/04/20 07:26:29;;;;;;;27.23;16.25;;;7.60;76.60;;;;;;5057814;28;20561;-63
2021/04/20 07:29:20;;;;;;;24.17;15.63;;;7.70;76.80;;;;;;5062873;28;20507;-63
2021/04/20 07:32:09;;;;;;;29.60;15.75;;;7.70;76.80;;;;;;5063941;28;20074;-63
2021/04/20 07:34:41;;;;;;;25.52;16.02;;;7.80;77.00;;;;;;5065282;28;20029;-63
2021/04/20 07:37:30;;;;;;;30.48;15.80;;;7.90;76.80;;;;;;5064813;28;20539;-63
2021/04/20 07:40:23;;;;;;;24.02;14.85;;;8.10;77.30;;;;;;5066050;28;20108;-64
2021/04/20 07:42:58;;;;;;;27.13;16.17;;;8.20;77.10;;;;;;5063772;28;20028;-63
2021/04/20 07:45:33;;;;;;;25.35;16.08;;;8.30;77.30;;;;;;5065502;28;20112;-63
2021/04/20 07:48:35;;;;;;;27.95;16.95;;;8.40;76.50;;;;;;5058612;28;20037;-63
2021/04/20 07:51:08;;;;;;;28.20;17.25;;;8.60;77.00;;;;;;5062365;28;20067;-63
2021/04/20 07:53:45;;;;;;;29.73;17.83;;;8.70;76.50;;;;;;5062965;28;20121;-63
2021/04/20 07:56:28;;;;;;;32.10;17.38;;;8.90;76.30;;;;;;5065442;28;20040;-63
2021/04/20 07:58:55;;;;;;;30.17;18.33;;;9.00;75.90;;;;;;5063788;28;20028;-64
2021/04/20 08:01:33;;;;;;;27.73;17.88;;;9.10;75.40;;;;;;5066529;28;20362;-64
2021/04/20 08:04:21;;;;;;;28.13;17.48;;;9.30;75.00;;;;;;5065557;28;20509;-63
2021/04/20 08:06:55;;;;;;;32.47;17.67;;;9.40;75.10;;;;;;5056490;28;20040;-64
2021/04/20 08:09:28;;;;;;;33.23;17.63;;;9.50;74.10;;;;;;5066173;28;20052;-63
2021/04/20 08:12:01;;;;;;;32.58;18.80;;;9.70;74.00;;;;;;5061524;28;20083;-64
2021/04/20 08:14:54;;;;;;;31.38;19.08;;;9.80;73.50;;;;;;5065664;28;20060;-64
2021/04/20 08:17:45;;;;;;;26.73;17.02;;;10.00;73.00;;;;;;5067027;28;20028;-63
2021/04/20 08:20:17;;;;;;;28.25;18.58;;;10.10;73.20;;;;;;5060796;28;20032;-62
2021/04/20 08:22:45;;;;;;;31.63;19.05;;;10.20;72.80;;;;;;5061842;28;20131;-63
2021/04/20 08:25:19;;;;;;;27.55;18.23;;;10.40;72.50;;;;;;5063618;28;20513;-63
2021/04/20 08:27:51;;;;;;;30.45;18.75;;;10.50;72.50;;;;;;5063933;28;20474;-64
2021/04/20 08:30:47;;;;;;;28.08;18.00;;;10.60;73.20;;;;;;5063471;28;20048;-63
2021/04/20 08:33:22;;;;;;;32.85;19.92;;;10.70;71.80;;;;;;5064587;28;20029;-64
2021/04/20 08:35:51;;;;;;;31.38;19.58;;;10.80;71.80;;;;;;5063784;28;20086;-63
2021/04/20 08:38:43;;;;;;;27.40;18.10;;;10.90;71.40;;;;;;5062812;28;20397;-63
2021/04/20 08:41:14;;;;;;;29.88;18.52;;;11.00;71.20;;;;;;5063056;28;20382;-63
2021/04/20 08:43:45;;;;;;;29.23;18.83;;;11.20;71.10;;;;;;5063641;28;20420;-63
2021/04/20 08:46:31;;;;;;;26.33;17.75;;;11.20;70.90;;;;;;5066053;28;20063;-63
2021/04/20 08:49:08;;;;;;;;;;;11.30;70.30;;;;;;5058669;28;20077;-64
2021/04/20 08:51:59;;;;;;;24.20;16.13;;;11.40;70.60;;;;;;5064839;28;19920;-62
2021/04/20 08:55:01;;;;;;;26.38;17.50;;;11.50;69.90;;;;;;5063311;28;20404;-64
2021/04/20 08:58:04;;;;;;;33.65;19.55;;;11.60;69.70;;;;;;5065627;28;20503;-63
2021/04/20 09:00:42;;;;;;;28.15;17.83;;;11.70;68.70;;;;;;5063809;28;20111;-64
2021/04/20 09:03:56;;;;;;;28.58;19.13;;;11.80;68.60;;;;;;5063972;28;20567;-63
2021/04/20 09:06:50;;;;;;;25.25;17.35;;;11.80;68.80;;;;;;5060185;28;20436;-62
2021/04/20 09:09:18;;;;;;;26.63;17.33;;;11.90;68.70;;;;;;5064897;28;20578;-63
2021/04/20 09:11:56;;;;;;;24.40;16.48;;;12.00;68.80;;;;;;5057732;28;20048;-63
2021/04/20 09:14:29;;;;;;;25.30;16.65;;;12.10;68.30;;;;;;5062601;28;20127;-64
2021/04/20 09:17:07;;;;;;;19.08;13.75;;;12.20;68.30;;;;;;5065515;28;20093;-63
2021/04/20 09:20:02;;;;;;;16.73;12.40;;;12.30;67.60;;;;;;5063848;28;20025;-63
2021/04/20 09:22:59;;;;;;;17.88;12.60;;;12.50;66.70;;;;;;5079456;28;20029;-64
2021/04/20 09:25:38;;;;;;;15.40;11.02;;;12.60;66.20;;;;;;5064957;28;20056;-64
2021/04/20 09:28:24;;;;;;;15.40;10.30;;;12.80;65.30;;;;;;5080466;28;20033;-63
2021/04/20 09:30:55;;;;;;;17.98;11.93;;;12.90;64.60;;;;;;5064611;28;20036;-64
2021/04/20 09:33:37;;;;;;;19.88;12.75;;;13.00;64.40;;;;;;5067030;28;20033;-64
2021/04/20 09:36:03;;;;;;;18.02;12.57;;;13.10;63.90;;;;;;5060144;28;20041;-64
2021/04/20 09:38:30;;;;;;;19.25;12.32;;;13.20;64.30;;;;;;5067573;28;20165;-63
2021/04/20 09:41:02;;;;;;;18.35;11.85;;;13.30;63.90;;;;;;5068916;28;20033;-64
2021/04/20 09:43:39;;;;;;;20.27;13.23;;;13.40;63.40;;;;;;5068534;28;20066;-63
2021/04/20 09:46:44;;;;;;;15.93;12.07;;;13.50;62.60;;;;;;5066896;28;20033;-64
2021/04/20 09:49:22;;;;;;;17.07;11.40;;;13.50;62.00;;;;;;4964336;28;20039;-64
2021/04/20 09:51:58;;;;;;;15.20;11.23;;;13.60;62.00;;;;;;5063737;28;20047;-63
2021/04/20 09:54:25;;;;;;;17.13;11.63;;;13.60;61.50;;;;;;5058601;28;20075;-63
2021/04/20 09:56:58;;;;;;;16.48;11.55;;;13.60;61.50;;;;;;5061100;28;20436;-64
2021/04/20 09:59:38;;;;;;;16.02;11.60;;;13.70;61.00;;;;;;5067156;28;20439;-64
2021/04/20 10:02:24;;;;;;;16.77;10.75;;;13.70;60.10;;;;;;5060167;28;20068;-64
2021/04/20 10:05:16;;;;;;;13.55;9.77;;;13.70;61.00;;;;;;5068110;28;20040;-64
2021/04/20 10:07:56;;;;;;;14.48;9.68;;;13.70;60.10;;;;;;5068992;28;20035;-64
2021/04/20 10:10:36;;;;;;;14.95;9.82;;;13.70;59.70;;;;;;5062713;28;20045;-64
2021/04/20 10:13:35;;;;;;;14.00;10.45;;;13.70;59.30;;;;;;5067244;28;20032;-64
2021/04/20 10:16:16;;;;;;;13.73;9.95;;;13.70;58.50;;;;;;5068435;28;20029;-64
2021/04/20 10:19:03;;;;;;;14.77;11.05;;;13.70;59.10;;;;;;5068199;28;20402;-63
2021/04/20 10:22:00;;;;;;;13.55;10.10;;;13.70;59.60;;;;;;5068429;28;20104;-64
2021/04/20 10:24:30;;;;;;;13.63;10.20;;;13.80;59.00;;;;;;5067288;28;20455;-63
2021/04/20 10:27:10;;;;;;;13.30;9.38;;;13.80;60.30;;;;;;5061632;28;20542;-64
2021/04/20 10:29:43;;;;;;;15.18;10.77;;;13.90;59.10;;;;;;5068610;28;20505;-64
2021/04/20 10:32:40;;;;;;;14.65;10.90;;;14.00;58.90;;;;;;5060082;28;20595;-63
2021/04/20 10:35:19;;;;;;;15.73;10.65;;;14.00;58.30;;;;;;5066795;28;20122;-63
2021/04/20 10:37:47;;;;;;;14.85;10.85;;;14.10;58.90;;;;;;5066660;28;20119;-63
2021/04/20 10:40:24;;;;;;;17.52;12.02;;;14.10;59.10;;;;;;5066714;28;20036;-63
2021/04/20 10:42:51;;;;;;;17.23;12.43;;;14.20;58.70;;;;;;5065678;28;20036;-63
2021/04/20 10:45:23;;;;;;;14.32;11.10;;;14.30;59.00;;;;;;5066065;28;20044;-63
2021/04/20 10:47:54;;;;;;;13.40;10.00;;;14.30;58.70;;;;;;5067206;28;20029;-63
2021/04/20 10:50:29;;;;;;;14.02;10.23;;;14.40;58.40;;;;;;5067543;28;20033;-63
2021/04/20 10:53:25;;;;;;;15.30;10.88;;;14.50;57.60;;;;;;5061831;28;20028;-63
2021/04/20 10:55:55;;;;;;;15.77;11.00;;;14.50;57.30;;;;;;5056834;28;20033;-63
2021/04/20 10:58:24;;;;;;;13.18;9.82;;;14.60;57.80;;;;;;5065796;28;20036;-63
2021/04/20 11:00:54;;;;;;;12.40;9.73;;;14.60;57.60;;;;;;5065781;28;20052;-63
2021/04/20 11:03:30;;;;;;;15.48;11.20;;;14.60;57.60;;;;;;5066682;28;20044;-62
2021/04/20 11:06:01;;;;;;;13.70;10.07;;;14.70;57.60;;;;;;5083216;28;20024;-63
2021/04/20 11:08:46;;;;;;;12.63;9.43;;;14.70;56.50;;;;;;5066280;28;20028;-63
2021/04/20 11:11:22;;;;;;;13.75;10.20;;;14.70;56.10;;;;;;5061874;28;20036;-63
2021/04/20 11:13:50;;;;;;;12.38;9.77;;;14.80;56.50;;;;;;5065895;28;20032;-63
2021/04/20 11:16:23;;;;;;;14.85;11.07;;;14.80;57.00;;;;;;5065581;28;20106;-63
2021/04/20 11:18:58;;;;;;;14.32;10.95;;;14.90;56.60;;;;;;5065078;28;20033;-62
2021/04/20 11:21:28;;;;;;;13.60;10.35;;;14.90;56.70;;;;;;5066215;28;20059;-63
2021/04/20 11:24:03;;;;;;;14.95;10.73;;;15.00;56.60;;;;;;5066285;28;20056;-62
2021/04/20 11:26:33;;;;;;;14.27;10.52;;;15.10;56.60;;;;;;5065446;28;20036;-63
2021/04/20 11:29:05;;;;;;;15.20;11.43;;;15.20;56.40;;;;;;5059811;28;20123;-63
2021/04/20 11:31:37;;;;;;;12.82;9.95;;;15.20;55.40;;;;;;5064220;28;20044;-63
2021/04/20 11:34:17;;;;;;;13.32;9.98;;;15.20;55.50;;;;;;5065886;28;20040;-63
2021/04/20 11:36:56;;;;;;;12.55;10.50;;;15.40;54.90;;;;;;5064414;28;20043;-63
2021/04/20 11:39:27;;;;;;;14.63;10.90;;;15.40;55.00;;;;;;5059449;28;20033;-63
2021/04/20 11:42:14;;;;;;;12.88;10.63;;;15.40;55.60;;;;;;5066460;28;20024;-63
2021/04/20 11:44:52;;;;;;;14.50;10.93;;;15.50;55.20;;;;;;5064040;28;20032;-63
2021/04/20 11:47:19;;;;;;;14.07;10.93;;;15.50;55.40;;;;;;5065288;28;20592;-63
2021/04/20 11:50:08;;;;;;;13.75;10.70;;;15.50;55.80;;;;;;5065574;28;20033;-63
2021/04/20 11:52:39;;;;;;;15.70;11.43;;;15.60;54.70;;;;;;5064898;28;20044;-63
2021/04/20 11:55:15;;;;;;;14.77;11.27;;;15.60;55.00;;;;;;5066055;28;20025;-63
2021/04/20 11:57:44;;;;;;;14.68;11.43;;;15.60;55.00;;;;;;5064901;28;20021;-64
2021/04/20 12:00:15;;;;;;;15.60;11.25;;;15.60;55.20;;;;;;5063394;28;20037;-63
2021/04/20 12:02:42;;;;;;;15.77;10.85;;;15.60;54.70;;;;;;5065374;28;20071;-63
2021/04/20 12:05:14;;;;;;;15.57;12.07;;;15.60;55.00;;;;;;5064658;28;20036;-63
2021/04/20 12:07:41;;;;;;;16.23;12.20;;;15.60;53.90;;;;;;5062702;28;20029;-63
2021/04/20 12:10:14;;;;;;;13.50;10.38;;;15.60;52.90;;;;;;5064091;28;20025;-62
2021/04/20 12:12:40;;;;;;;11.18;9.25;;;15.60;53.80;;;;;;5061717;28;20414;-63
2021/04/20 12:15:10;;;;;;;13.13;10.25;;;15.50;54.20;;;;;;5066004;28;20028;-63
2021/04/20 12:17:44;;;;;;;13.75;10.57;;;15.50;54.40;;;;;;5066197;28;20020;-64
2021/04/20 12:20:18;;;;;;;13.60;9.85;;;15.50;53.10;;;;;;5065801;28;20514;-64
2021/04/20 12:22:56;;;;;;;11.75;9.95;;;15.50;53.50;;;;;;5064424;28;20038;-63
2021/04/20 12:25:28;;;;;;;11.23;9.07;;;15.60;53.60;;;;;;5044960;28;20461;-63
2021/04/20 12:28:02;;;;;;;12.65;9.48;;;15.60;53.00;;;;;;5063439;28;20582;-63
2021/04/20 12:30:31;;;;;;;11.23;8.55;;;15.60;51.50;;;;;;5063826;28;20040;-64
2021/04/20 12:33:01;;;;;;;10.68;8.80;;;15.60;52.70;;;;;;5062684;28;20512;-63
2021/04/20 12:35:30;;;;;;;10.82;8.30;;;15.70;52.80;;;;;;5064824;28;20449;-63
2021/04/20 12:38:01;;;;;;;12.13;8.75;;;15.60;52.80;;;;;;5064266;28;20036;-63
2021/04/20 12:40:32;;;;;;;10.02;8.00;;;15.70;52.00;;;;;;5063903;28;20044;-64
2021/04/20 12:43:04;;;;;;;8.90;7.72;;;15.70;51.60;;;;;;5062542;28;20033;-63
2021/04/20 12:45:37;;;;;;;10.82;8.57;;;15.70;51.50;;;;;;5063693;28;20455;-62
2021/04/20 12:48:04;;;;;;;11.38;7.75;;;15.70;50.30;;;;;;5064977;28;20090;-64
2021/04/20 12:50:41;;;;;;;7.72;6.93;;;15.60;51.40;;;;;;5064518;28;20516;-63
2021/04/20 12:53:12;;;;;;;7.57;6.38;;;15.70;51.30;;;;;;5057951;28;20071;-63
2021/04/20 12:55:45;;;;;;;7.80;6.65;;;15.70;51.90;;;;;;5064186;28;20021;-63
2021/04/20 12:58:17;;;;;;;8.07;6.90;;;15.70;51.50;;;;;;5065750;28;20029;-64
2021/04/20 13:00:48;;;;;;;8.68;7.15;;;15.80;51.20;;;;;;5064443;28;20500;-63
2021/04/20 13:03:21;;;;;;;11.18;7.82;;;15.80;51.60;;;;;;5064269;28;20074;-63
2021/04/20 13:05:48;;;;;;;9.13;7.50;;;15.90;52.00;;;;;;5068708;28;20165;-63
2021/04/20 13:08:17;;;;;;;10.70;7.53;;;16.00;51.90;;;;;;5069963;28;20029;-63
2021/04/20 13:10:58;;;;;;;7.78;6.57;;;16.00;51.60;;;;;;5064808;28;20066;-63
2021/04/20 13:13:29;;;;;;;8.60;7.30;;;16.10;50.60;;;;;;5069481;28;20033;-63